Time;durP1;ratioP1;P1;durP2;ratioP2;P2;SDS_P1;SDS_P2;PMS_P1;PMS_P2;Temp;Humidity;BMP_temperature;BMP_pressure;BME280_temperature;BME280_humidity;BME280_pressure;Samples;Min_cycle;Max_cycle;Signal;HPM_P1;HPM_P2
2022/01/07 00:01:58;;;;;;;18.38;6.45;;;;;;;;;;5086104;28;20126;-61
2022/01/07 00:04:24;;;;;;;13.75;5.68;;;;;;;;;;5067160;28;20052;-61
2022/01/07 00:06:51;;;;;;;15.98;6.20;;;;;;;;;;5088873;28;20063;-61
2022/01/07 00:09:18;;;;;;;17.95;6.55;;;;;;;;;;5082122;28;20052;-61
2022/01/07 00:11:44;;;;;;;25.85;7.68;;;;;;;;;;5090592;28;20046;-61
2022/01/07 00:14:10;;;;;;;16.23;6.28;;;;;;;;;;5090006;28;20044;-61
2022/01/07 00:16:36;;;;;;;23.17;7.53;;;;;;;;;;5091273;28;20123;-61
2022/01/07 00:19:03;;;;;;;21.73;6.43;;;;;;;;;;5086114;28;20154;-61
2022/01/07 00:21:29;;;;;;;15.48;5.93;;;;;;;;;;5086004;28;20055;-61
2022/01/07 00:23:55;;;;;;;19.35;6.38;;;;;;;;;;5090180;28;20510;-61
2022/01/07 00:26:21;;;;;;;19.40;6.22;;;;;;;;;;5088552;28;20094;-61
2022/01/07 00:28:48;;;;;;;15.82;6.72;;;;;;;;;;5086727;28;20070;-61
2022/01/07 00:31:14;;;;;;;21.67;8.30;;;;;;;;;;5086312;28;20051;-61
2022/01/07 00:33:40;;;;;;;18.73;7.15;;;;;;;;;;5090762;28;20113;-61
2022/01/07 00:36:06;;;;;;;25.73;7.07;;;;;;;;;;5086295;28;20058;-61
2022/01/07 00:38:33;;;;;;;16.50;6.70;;;;;;;;;;5085061;28;20043;-61
2022/01/07 00:40:59;;;;;;;23.25;8.07;;;;;;;;;;5082165;28;20097;-61
2022/01/07 00:43:25;;;;;;;22.15;7.78;;;;;;;;;;5077380;28;20479;-61
2022/01/07 00:45:51;;;;;;;22.70;6.72;;;;;;;;;;5082721;28;20474;-61
2022/01/07 00:48:17;;;;;;;14.95;6.53;;;;;;;;;;5084254;28;20377;-61
2022/01/07 00:50:43;;;;;;;17.40;7.63;;;;;;;;;;5084093;28;20501;-61
2022/01/07 00:53:10;;;;;;;19.45;8.15;;;;;;;;;;5086583;28;20052;-61
2022/01/07 00:55:36;;;;;;;20.85;8.32;;;;;;;;;;5085240;28;20114;-61
2022/01/07 00:58:03;;;;;;;21.88;7.35;;;;;;;;;;5088804;28;20047;-61
2022/01/07 01:00:29;;;;;;;21.63;7.47;;;;;;;;;;5082246;28;20095;-62
2022/01/07 01:02:56;;;;;;;23.73;8.25;;;;;;;;;;5082963;28;20040;-61
2022/01/07 01:05:23;;;;;;;28.10;8.88;;;;;;;;;;5082749;28;20496;-61
2022/01/07 01:07:49;;;;;;;18.60;8.25;;;;;;;;;;5083792;28;20049;-61
2022/01/07 01:10:17;;;;;;;21.55;9.55;;;;;;;;;;5084356;28;20048;-61
2022/01/07 01:12:44;;;;;;;23.83;11.27;;;;;;;;;;5084035;28;20847;-61
2022/01/07 01:15:12;;;;;;;19.95;8.60;;;;;;;;;;5085365;28;20076;-61
2022/01/07 01:17:38;;;;;;;22.73;9.07;;;;;;;;;;5086699;28;20040;-61
2022/01/07 01:20:06;;;;;;;25.33;9.10;;;;;;;;;;5086421;28;20100;-61
2022/01/07 01:22:32;;;;;;;27.30;9.07;;;;;;;;;;5088640;28;20054;-61
2022/01/07 01:24:58;;;;;;;23.88;10.02;;;;;;;;;;5086788;28;20048;-61
2022/01/07 01:27:25;;;;;;;26.10;9.32;;;;;;;;;;5081190;28;20032;-61
2022/01/07 01:29:51;;;;;;;19.48;10.18;;;;;;;;;;5090075;28;20400;-61
2022/01/07 01:32:17;;;;;;;28.33;12.05;;;;;;;;;;5086205;28;20036;-61
2022/01/07 01:34:44;;;;;;;21.33;10.20;;;;;;;;;;5088591;28;20345;-62
2022/01/07 01:37:10;;;;;;;24.33;11.80;;;;;;;;;;5087996;28;20040;-61
2022/01/07 01:39:36;;;;;;;26.20;11.73;;;;;;;;;;5084209;28;20051;-61
2022/01/07 01:42:03;;;;;;;24.27;10.57;;;;;;;;;;5086352;28;20440;-61
2022/01/07 01:44:29;;;;;;;27.10;10.13;;;;;;;;;;5086292;28;20082;-61
2022/01/07 01:46:56;;;;;;;21.02;10.95;;;;;;;;;;5088097;28;20059;-61
2022/01/07 01:49:22;;;;;;;25.77;12.13;;;;;;;;;;5078667;28;20044;-61
2022/01/07 01:51:49;;;;;;;25.85;11.77;;;;;;;;;;5083932;28;20492;-61
2022/01/07 01:54:15;;;;;;;25.40;11.63;;;;;;;;;;5086980;28;20052;-61
2022/01/07 01:56:41;;;;;;;27.35;13.65;;;;;;;;;;5089004;28;20070;-61
2022/01/07 01:59:08;;;;;;;26.08;13.18;;;;;;;;;;5080814;28;20048;-61
2022/01/07 02:01:34;;;;;;;23.40;12.55;;;;;;;;;;5083994;28;20047;-62
2022/01/07 02:04:00;;;;;;;24.08;12.32;;;;;;;;;;5088704;28;20135;-61
2022/01/07 02:06:27;;;;;;;27.00;14.05;;;;;;;;;;5083748;28;20040;-61
2022/01/07 02:08:53;;;;;;;29.90;13.80;;;;;;;;;;5090176;28;20164;-61
2022/01/07 02:11:19;;;;;;;24.35;14.38;;;;;;;;;;5089945;28;20044;-61
2022/01/07 02:13:48;;;;;;;22.38;13.07;;;;;;;;;;5087473;28;20075;-61
2022/01/07 02:16:15;;;;;;;23.77;14.32;;;;;;;;;;5085222;28;20469;-61
2022/01/07 02:18:43;;;;;;;24.13;13.93;;;;;;;;;;5087465;28;20043;-61
2022/01/07 02:21:09;;;;;;;28.63;14.88;;;;;;;;;;5085543;28;20074;-61
2022/01/07 02:23:36;;;;;;;23.92;14.38;;;;;;;;;;5082406;28;20044;-61
2022/01/07 02:26:02;;;;;;;24.10;14.70;;;;;;;;;;5081059;28;20036;-61
2022/01/07 02:28:28;;;;;;;26.15;14.70;;;;;;;;;;5084035;28;20097;-62
2022/01/07 02:30:54;;;;;;;21.50;14.10;;;;;;;;;;5082696;28;20040;-61
2022/01/07 02:33:21;;;;;;;18.13;12.15;;;;;;;;;;5078461;28;20051;-61
2022/01/07 02:35:47;;;;;;;18.15;11.48;;;;;;;;;;5082887;28;20863;-61
2022/01/07 02:38:15;;;;;;;19.55;12.55;;;;;;;;;;5081476;28;20036;-61
2022/01/07 02:40:41;;;;;;;19.45;12.38;;;;;;;;;;5081747;28;20075;-61
2022/01/07 02:43:08;;;;;;;22.23;13.48;;;;;;;;;;5083166;28;20143;-61
2022/01/07 02:45:35;;;;;;;24.48;15.48;;;;;;;;;;5082111;28;20052;-61
2022/01/07 02:48:03;;;;;;;23.90;14.00;;;;;;;;;;5083826;28;20127;-61
2022/01/07 02:50:33;;;;;;;25.13;14.40;;;;;;;;;;5081220;28;20507;-61
2022/01/07 02:53:00;;;;;;;28.70;14.70;;;;;;;;;;5081002;28;20071;-61
2022/01/07 02:55:27;;;;;;;27.63;16.17;;;;;;;;;;5081352;28;21090;-61
2022/01/07 02:57:53;;;;;;;24.95;15.18;;;;;;;;;;5081826;28;20380;-61
2022/01/07 03:00:19;;;;;;;23.23;15.05;;;;;;;;;;5082029;28;20044;-61
2022/01/07 03:02:46;;;;;;;24.75;15.23;;;;;;;;;;5087419;28;20040;-61
2022/01/07 03:05:13;;;;;;;32.92;16.05;;;;;;;;;;5080162;28;20128;-61
2022/01/07 03:07:39;;;;;;;27.50;15.55;;;;;;;;;;5080059;28;20051;-61
2022/01/07 03:10:06;;;;;;;29.23;16.70;;;;;;;;;;5081931;28;20121;-61
2022/01/07 03:12:32;;;;;;;35.22;15.85;;;;;;;;;;5081693;28;20461;-61
2022/01/07 03:14:58;;;;;;;31.77;16.38;;;;;;;;;;5084903;28;20109;-61
2022/01/07 03:17:24;;;;;;;28.23;17.40;;;;;;;;;;5080396;28;20383;-61
2022/01/07 03:19:50;;;;;;;33.50;17.17;;;;;;;;;;5075236;28;20405;-61
2022/01/07 03:22:17;;;;;;;27.17;16.35;;;;;;;;;;5080680;28;20052;-61
2022/01/07 03:24:43;;;;;;;32.28;16.52;;;;;;;;;;5079960;28;20044;-61
2022/01/07 03:27:09;;;;;;;38.67;17.77;;;;;;;;;;5085868;28;20044;-62
2022/01/07 03:29:35;;;;;;;32.05;18.02;;;;;;;;;;5083702;28;20087;-61
2022/01/07 03:32:01;;;;;;;26.98;16.45;;;;;;;;;;5079406;28;20070;-61
2022/01/07 03:34:27;;;;;;;26.38;17.13;;;;;;;;;;5081724;28;20050;-61
2022/01/07 03:36:54;;;;;;;33.75;17.95;;;;;;;;;;5081084;28;20040;-61
2022/01/07 03:39:20;;;;;;;32.10;17.52;;;;;;;;;;5086268;28;20119;-61
2022/01/07 03:41:46;;;;;;;27.38;17.50;;;;;;;;;;5086664;28;20455;-61
2022/01/07 03:44:12;;;;;;;29.88;17.42;;;;;;;;;;5088782;28;20145;-61
2022/01/07 03:46:38;;;;;;;28.85;15.77;;;;;;;;;;5087138;28;20135;-61
2022/01/07 03:49:04;;;;;;;32.00;17.90;;;;;;;;;;5087869;28;20114;-61
2022/01/07 03:51:30;;;;;;;33.63;18.50;;;;;;;;;;5085456;28;20520;-61
2022/01/07 03:53:56;;;;;;;34.22;17.88;;;;;;;;;;5080376;28;20048;-61
2022/01/07 03:56:23;;;;;;;28.08;16.40;;;;;;;;;;5082142;28;20059;-61
2022/01/07 03:58:49;;;;;;;30.90;18.63;;;;;;;;;;5080700;28;20047;-61
2022/01/07 04:01:15;;;;;;;26.80;17.27;;;;;;;;;;5081182;28;20124;-61
2022/01/07 04:03:41;;;;;;;21.85;16.00;;;;;;;;;;5078933;28;20087;-61
2022/01/07 04:06:07;;;;;;;25.77;15.85;;;;;;;;;;5076912;28;20422;-62
2022/01/07 04:08:33;;;;;;;25.15;15.82;;;;;;;;;;5081026;28;20048;-61
2022/01/07 04:10:59;;;;;;;28.50;15.75;;;;;;;;;;5077539;28;20049;-61
2022/01/07 04:13:26;;;;;;;22.27;14.15;;;;;;;;;;5080543;28;20047;-61
2022/01/07 04:15:52;;;;;;;24.48;15.95;;;;;;;;;;5082599;28;20040;-62
2022/01/07 04:18:18;;;;;;;26.77;15.32;;;;;;;;;;5079990;28;20373;-61
2022/01/07 04:20:44;;;;;;;24.08;15.35;;;;;;;;;;5076313;28;20470;-62
2022/01/07 04:23:10;;;;;;;24.45;16.60;;;;;;;;;;5081407;28;20047;-62
2022/01/07 04:25:36;;;;;;;33.88;17.75;;;;;;;;;;5077959;28;20052;-62
2022/01/07 04:28:05;;;;;;;25.75;16.60;;;;;;;;;;5083791;28;20036;-61
2022/01/07 04:30:34;;;;;;;25.50;16.80;;;;;;;;;;5080831;28;20056;-62
2022/01/07 04:33:02;;;;;;;32.10;17.65;;;;;;;;;;5080616;28;20040;-62
2022/01/07 04:35:28;;;;;;;26.42;17.25;;;;;;;;;;5079609;28;20048;-62
2022/01/07 04:37:54;;;;;;;27.67;17.58;;;;;;;;;;5079104;28;20549;-62
2022/01/07 04:40:21;;;;;;;28.58;16.52;;;;;;;;;;5079672;28;20110;-62
2022/01/07 04:42:47;;;;;;;26.20;17.52;;;;;;;;;;5082440;28;20041;-62
2022/01/07 04:45:13;;;;;;;31.15;18.77;;;;;;;;;;5080751;28;20041;-62
2022/01/07 04:47:40;;;;;;;26.02;17.15;;;;;;;;;;5079094;28;20116;-61
2022/01/07 04:50:08;;;;;;;26.15;16.27;;;;;;;;;;5081336;28;20076;-62
2022/01/07 04:52:34;;;;;;;28.92;17.90;;;;;;;;;;5081830;28;20040;-62
2022/01/07 04:55:00;;;;;;;26.23;17.85;;;;;;;;;;5077771;28;20059;-61
2022/01/07 04:57:26;;;;;;;28.58;18.55;;;;;;;;;;5082327;28;20484;-62
2022/01/07 04:59:52;;;;;;;26.02;17.80;;;;;;;;;;5082166;28;20044;-62
2022/01/07 05:02:20;;;;;;;28.33;19.30;;;;;;;;;;5083259;28;20085;-61
2022/01/07 05:04:47;;;;;;;27.17;17.15;;;;;;;;;;5085084;28;20441;-62
2022/01/07 05:07:13;;;;;;;28.60;17.70;;;;;;;;;;5082455;28;20044;-62
2022/01/07 05:09:39;;;;;;;29.95;17.40;;;;;;;;;;5083177;28;20065;-61
2022/01/07 05:12:05;;;;;;;27.42;18.25;;;;;;;;;;5081596;28;20062;-61
2022/01/07 05:14:32;;;;;;;26.73;17.02;;;;;;;;;;5085337;28;20045;-62
2022/01/07 05:16:58;;;;;;;30.55;19.38;;;;;;;;;;5083405;28;20060;-62
2022/01/07 05:19:24;;;;;;;33.20;21.13;;;;;;;;;;5083716;28;20467;-62
2022/01/07 05:21:50;;;;;;;30.67;20.40;;;;;;;;;;5077365;28;20072;-62
2022/01/07 05:24:16;;;;;;;34.25;19.92;;;;;;;;;;5085814;28;20336;-62
2022/01/07 05:26:42;;;;;;;30.85;18.30;;;;;;;;;;5081796;28;20040;-62
2022/01/07 05:29:08;;;;;;;35.33;19.20;;;;;;;;;;5085436;28;20042;-61
2022/01/07 05:31:34;;;;;;;31.48;19.23;;;;;;;;;;5086238;28;20107;-61
2022/01/07 05:34:01;;;;;;;33.75;19.70;;;;;;;;;;5078322;28;20113;-62
2022/01/07 05:36:27;;;;;;;36.50;20.30;;;;;;;;;;5080923;28;20550;-61
2022/01/07 05:38:53;;;;;;;43.13;22.08;;;;;;;;;;5082569;28;20040;-62
2022/01/07 05:41:19;;;;;;;33.33;20.75;;;;;;;;;;5084063;28;20115;-61
2022/01/07 05:43:45;;;;;;;35.40;21.23;;;;;;;;;;5083525;28;20518;-62
2022/01/07 05:46:14;;;;;;;29.58;20.73;;;;;;;;;;5082443;28;20399;-61
2022/01/07 05:48:41;;;;;;;36.10;21.40;;;;;;;;;;5082504;28;20083;-62
2022/01/07 05:51:07;;;;;;;38.63;21.92;;;;;;;;;;5081672;28;20464;-61
2022/01/07 05:53:34;;;;;;;33.58;20.23;;;;;;;;;;5084719;28;20406;-62
2022/01/07 05:56:00;;;;;;;39.60;20.75;;;;;;;;;;5079394;28;20074;-62
2022/01/07 05:58:26;;;;;;;44.17;22.60;;;;;;;;;;5082761;28;20119;-62
2022/01/07 06:00:52;;;;;;;39.63;23.45;;;;;;;;;;5086596;28;20048;-62
2022/01/07 06:03:18;;;;;;;37.65;21.17;;;;;;;;;;5076848;28;20040;-62
2022/01/07 06:05:44;;;;;;;38.08;22.92;;;;;;;;;;5087993;28;20399;-61
2022/01/07 06:08:10;;;;;;;38.30;22.50;;;;;;;;;;5084885;28;20432;-62
2022/01/07 06:10:37;;;;;;;35.60;21.23;;;;;;;;;;5089072;28;20040;-61
2022/01/07 06:13:03;;;;;;;35.50;22.85;;;;;;;;;;5081106;28;20036;-61
2022/01/07 06:15:29;;;;;;;35.13;22.30;;;;;;;;;;5084719;28;20422;-63
2022/01/07 06:17:55;;;;;;;38.65;23.08;;;;;;;;;;5085530;28;20051;-62
2022/01/07 06:20:22;;;;;;;44.75;23.15;;;;;;;;;;5083640;28;20080;-62
2022/01/07 06:22:48;;;;;;;37.20;24.35;;;;;;;;;;5083727;28;20052;-62
2022/01/07 06:25:14;;;;;;;42.40;25.90;;;;;;;;;;5081793;28;20340;-62
2022/01/07 06:27:40;;;;;;;38.35;24.85;;;;;;;;;;5086783;28;20457;-62
2022/01/07 06:30:07;;;;;;;34.33;23.42;;;;;;;;;;5084198;28;20456;-62
2022/01/07 06:32:34;;;;;;;36.63;25.25;;;;;;;;;;5082876;28;20404;-63
2022/01/07 06:35:00;;;;;;;39.90;24.58;;;;;;;;;;5083852;28;20040;-66
2022/01/07 06:37:26;;;;;;;37.40;24.63;;;;;;;;;;5082090;28;20044;-62
2022/01/07 06:39:52;;;;;;;34.83;23.83;;;;;;;;;;5083251;28;20037;-63
2022/01/07 06:42:18;;;;;;;34.30;24.48;;;;;;;;;;5081957;28;20077;-61
2022/01/07 06:44:44;;;;;;;40.30;24.85;;;;;;;;;;5079447;28;20071;-62
2022/01/07 06:47:11;;;;;;;36.85;24.63;;;;;;;;;;5079033;28;20044;-62
2022/01/07 06:49:37;;;;;;;39.33;25.50;;;;;;;;;;5083935;28;20052;-62
2022/01/07 06:52:04;;;;;;;39.30;24.55;;;;;;;;;;5085155;28;20036;-62
2022/01/07 06:54:31;;;;;;;40.60;23.75;;;;;;;;;;5085790;28;20058;-63
2022/01/07 06:56:58;;;;;;;38.22;25.27;;;;;;;;;;5082129;28;20447;-63
2022/01/07 06:59:24;;;;;;;36.55;25.48;;;;;;;;;;5084807;28;20070;-63
2022/01/07 07:01:50;;;;;;;35.75;24.25;;;;;;;;;;5087841;28;20044;-63
2022/01/07 07:04:16;;;;;;;37.65;23.48;;;;;;;;;;5086951;28;20400;-63
2022/01/07 07:06:43;;;;;;;35.50;22.00;;;;;;;;;;5083488;28;20468;-63
2022/01/07 07:09:09;;;;;;;39.70;24.50;;;;;;;;;;5084242;28;20093;-64
2022/01/07 07:11:35;;;;;;;34.50;22.20;;;;;;;;;;5087460;28;20051;-64
2022/01/07 07:14:02;;;;;;;38.40;22.83;;;;;;;;;;5102289;27;20131;-63
2022/01/07 07:16:29;;;;;;;44.28;24.70;;;;;;;;;;5087908;28;20056;-63
2022/01/07 07:18:55;;;;;;;47.05;24.67;;;;;;;;;;5083137;28;20427;-63
2022/01/07 07:21:21;;;;;;;37.60;25.45;;;;;;;;;;5086886;28;20044;-63
2022/01/07 07:23:47;;;;;;;46.05;25.38;;;;;;;;;;5082003;28;20071;-63
2022/01/07 07:26:14;;;;;;;39.58;26.08;;;;;;;;;;5085138;28;20127;-63
2022/01/07 07:28:40;;;;;;;46.35;24.45;;;;;;;;;;5079401;28;20051;-63
2022/01/07 07:31:11;;;;;;;40.22;25.75;;;;;;;;;;5078941;28;20048;-62
2022/01/07 07:36:27;;;;;;;43.33;25.45;;;;;;;;;;5080215;28;20092;-63
2022/01/07 07:38:54;;;;;;;49.23;26.47;;;;;;;;;;5080664;28;20041;-63
2022/01/07 07:41:20;;;;;;;43.08;27.15;;;;;;;;;;5078729;28;20298;-63
2022/01/07 07:43:49;;;;;;;52.28;27.80;;;;;;;;;;5078196;28;20124;-63
2022/01/07 07:46:19;;;;;;;44.75;25.88;;;;;;;;;;5080425;28;20491;-64
2022/01/07 07:48:46;;;;;;;49.13;26.95;;;;;;;;;;5098607;28;20037;-63
2022/01/07 07:51:12;;;;;;;55.58;27.63;;;;;;;;;;5082045;28;20084;-63
2022/01/07 07:53:38;;;;;;;47.63;26.23;;;;;;;;;;5080791;28;20055;-63
2022/01/07 07:56:05;;;;;;;55.47;29.52;;;;;;;;;;5082472;28;20127;-63
2022/01/07 07:58:31;;;;;;;44.17;26.35;;;;;;;;;;5074618;28;20048;-63
2022/01/07 08:00:57;;;;;;;45.60;26.73;;;;;;;;;;5083085;28;20079;-63
2022/01/07 08:03:24;;;;;;;45.22;27.17;;;;;;;;;;5077021;28;20040;-63
2022/01/07 08:05:51;;;;;;;47.97;26.95;;;;;;;;;;5080539;28;20048;-63
2022/01/07 08:08:17;;;;;;;43.55;26.70;;;;;;;;;;5081842;28;20037;-63
2022/01/07 08:10:48;;;;;;;58.15;27.83;;;;;;;;;;5080742;28;20143;-63
2022/01/07 08:18:29;;;;;;;54.83;26.73;;;;;;;;;;5079633;28;20044;-64
2022/01/07 08:20:56;;;;;;;49.08;27.27;;;;;;;;;;5082004;28;20385;-63
2022/01/07 08:23:22;;;;;;;51.03;26.50;;;;;;;;;;5079826;28;20039;-63
2022/01/07 08:25:48;;;;;;;42.17;24.08;;;;;;;;;;5081395;28;20052;-64
2022/01/07 08:28:16;;;;;;;47.38;25.83;;;;;;;;;;5079704;28;20036;-64
2022/01/07 08:36:20;;;;;;;49.88;25.30;;;;;;;;;;5087374;28;20487;-64
2022/01/07 08:38:48;;;;;;;48.80;26.15;;;;;;;;;;5088019;28;20032;-63
2022/01/07 08:41:14;;;;;;;52.30;26.65;;;;;;;;;;5089019;28;20444;-63
2022/01/07 08:43:40;;;;;;;44.25;25.20;;;;;;;;;;5095957;28;20400;-63
2022/01/07 08:46:07;;;;;;;51.90;24.48;;;;;;;;;;5095117;28;20141;-63
2022/01/07 08:48:33;;;;;;;42.55;25.27;;;;;;;;;;5090326;28;20047;-63
2022/01/07 08:51:00;;;;;;;51.67;26.83;;;;;;;;;;5088860;28;20081;-63
2022/01/07 08:53:27;;;;;;;57.38;27.15;;;;;;;;;;5093265;28;20090;-63
2022/01/07 08:55:53;;;;;;;53.17;27.15;;;;;;;;;;5092089;28;20036;-64
2022/01/07 08:58:19;;;;;;;45.53;26.67;;;;;;;;;;5090559;28;20040;-63
2022/01/07 09:00:45;;;;;;;49.03;27.77;;;;;;;;;;5095439;28;20492;-63
2022/01/07 09:03:12;;;;;;;55.72;24.73;;;;;;;;;;5096824;28;20036;-63
2022/01/07 09:05:39;;;;;;;48.58;26.00;;;;;;;;;;5093106;28;20082;-64
2022/01/07 09:08:07;;;;;;;56.75;29.25;;;;;;;;;;5092433;28;20052;-64
2022/01/07 09:10:33;;;;;;;49.28;25.70;;;;;;;;;;5086906;28;20569;-63
2022/01/07 09:13:00;;;;;;;56.08;26.75;;;;;;;;;;5091042;28;20093;-63
2022/01/07 09:15:26;;;;;;;55.25;27.50;;;;;;;;;;5088732;28;20178;-63
2022/01/07 09:17:52;;;;;;;56.17;28.80;;;;;;;;;;5091469;28;20047;-63
2022/01/07 09:20:21;;;;;;;51.75;26.02;;;;;;;;;;5092934;28;20055;-63
2022/01/07 09:22:47;;;;;;;53.78;27.80;;;;;;;;;;5094025;28;20480;-63
2022/01/07 09:25:13;;;;;;;52.75;29.45;;;;;;;;;;5095526;28;20048;-63
2022/01/07 09:27:41;;;;;;;61.33;30.08;;;;;;;;;;5093145;28;20059;-63
2022/01/07 09:30:07;;;;;;;62.17;30.27;;;;;;;;;;5090253;28;20067;-63
2022/01/07 09:32:34;;;;;;;60.40;26.73;;;;;;;;;;5085411;28;20040;-64
2022/01/07 09:35:00;;;;;;;50.10;25.50;;;;;;;;;;5085262;28;20123;-63
2022/01/07 09:37:29;;;;;;;39.03;22.63;;;;;;;;;;5089514;28;20099;-63
2022/01/07 09:39:55;;;;;;;47.35;21.73;;;;;;;;;;5090336;28;20036;-63
2022/01/07 09:42:21;;;;;;;48.92;20.60;;;;;;;;;;5090821;28;20040;-63
2022/01/07 09:44:48;;;;;;;31.25;16.23;;;;;;;;;;5089700;28;20479;-62
2022/01/07 09:47:17;;;;;;;25.38;11.82;;;;;;;;;;5093774;28;20046;-63
2022/01/07 09:49:43;;;;;;;26.63;11.75;;;;;;;;;;5089297;28;20083;-62
2022/01/07 09:52:09;;;;;;;34.42;12.90;;;;;;;;;;5093544;28;20048;-62
2022/01/07 09:54:36;;;;;;;29.10;10.32;;;;;;;;;;5089756;28;20048;-63
2022/01/07 09:57:04;;;;;;;27.05;12.20;;;;;;;;;;5093355;28;20038;-63
2022/01/07 09:59:30;;;;;;;36.67;15.13;;;;;;;;;;5091887;28;20060;-63
2022/01/07 10:01:57;;;;;;;33.72;16.67;;;;;;;;;;5093333;28;20428;-63
2022/01/07 10:04:28;;;;;;;44.03;18.52;;;;;;;;;;5093284;28;20044;-62
2022/01/07 10:07:21;;;;;;;40.65;22.08;;;;;;;;;;5093132;28;20040;-63
2022/01/07 10:09:59;;;;;;;40.03;20.95;;;;;;;;;;5094836;28;20456;-62
2022/01/07 10:12:26;;;;;;;44.53;19.23;;;;;;;;;;5087579;28;20532;-63
2022/01/07 10:15:08;;;;;;;41.17;19.60;;;;;;;;;;5092134;28;20040;-62
2022/01/07 10:17:35;;;;;;;31.40;15.60;;;;;;;;;;5090859;28;20435;-62
2022/01/07 10:20:01;;;;;;;24.13;12.65;;;;;;;;;;5089871;28;20040;-62
2022/01/07 10:22:27;;;;;;;26.52;11.75;;;;;;;;;;5088873;28;20387;-65
2022/01/07 10:24:54;;;;;;;22.08;9.95;;;;;;;;;;5087630;28;20047;-63
2022/01/07 10:27:21;;;;;;;21.40;8.10;;;;;;;;;;5089174;28;20048;-63
2022/01/07 10:29:47;;;;;;;13.98;6.97;;;;;;;;;;5089050;28;20092;-63
2022/01/07 10:32:24;;;;;;;19.08;8.70;;;;;;;;;;5089387;28;20036;-63
2022/01/07 10:35:04;;;;;;;15.25;6.55;;;;;;;;;;5085447;28;20050;-62
2022/01/07 10:37:30;;;;;;;19.25;8.02;;;;;;;;;;5086916;28;20112;-70
2022/01/07 10:39:56;;;;;;;20.15;8.25;;;;;;;;;;5085615;28;20538;-63
2022/01/07 10:42:23;;;;;;;17.30;7.57;;;;;;;;;;5083808;28;20166;-63
2022/01/07 10:45:00;;;;;;;19.02;8.52;;;;;;;;;;5084245;28;20044;-64
2022/01/07 10:47:28;;;;;;;19.73;8.02;;;;;;;;;;5084971;28;20063;-64
2022/01/07 10:50:13;;;;;;;21.63;9.63;;;;;;;;;;5081881;28;20415;-64
2022/01/07 10:52:39;;;;;;;25.83;9.38;;;;;;;;;;5084184;28;20066;-63
2022/01/07 10:55:12;;;;;;;18.40;8.27;;;;;;;;;;5081177;28;20120;-63
2022/01/07 10:57:40;;;;;;;26.42;9.55;;;;;;;;;;5102729;27;20059;-63
2022/01/07 11:00:07;;;;;;;20.17;8.30;;;;;;;;;;5087504;28;20040;-63
2022/01/07 11:02:34;;;;;;;25.02;8.88;;;;;;;;;;5087512;28;20063;-64
2022/01/07 11:05:00;;;;;;;23.48;8.30;;;;;;;;;;5087257;28;20964;-64
2022/01/07 11:07:28;;;;;;;24.95;9.10;;;;;;;;;;5087209;28;20043;-64
2022/01/07 11:09:56;;;;;;;24.13;10.02;;;;;;;;;;5090102;28;20123;-63
2022/01/07 11:12:23;;;;;;;24.98;9.73;;;;;;;;;;5087771;28;20062;-63
2022/01/07 11:14:49;;;;;;;23.17;7.32;;;;;;;;;;5090619;28;20035;-64
2022/01/07 11:17:21;;;;;;;27.65;8.30;;;;;;;;;;5092012;28;20078;-64
2022/01/07 11:19:55;;;;;;;16.63;6.15;;;;;;;;;;5088686;28;20055;-64
2022/01/07 11:22:22;;;;;;;23.52;6.43;;;;;;;;;;5088387;28;20044;-64
2022/01/07 11:24:51;;;;;;;20.20;5.70;;;;;;;;;;5088718;28;20051;-63
2022/01/07 11:27:20;;;;;;;17.15;5.22;;;;;;;;;;5090229;28;20474;-63
2022/01/07 11:29:52;;;;;;;14.48;5.28;;;;;;;;;;5087640;28;20126;-63
2022/01/07 11:32:27;;;;;;;23.30;5.82;;;;;;;;;;5086769;28;20059;-63
2022/01/07 11:34:54;;;;;;;16.80;6.75;;;;;;;;;;5086295;28;20048;-63
2022/01/07 11:37:37;;;;;;;15.15;7.03;;;;;;;;;;5095512;28;20066;-62
2022/01/07 11:40:04;;;;;;;26.05;9.40;;;;;;;;;;5090695;28;20040;-63
2022/01/07 11:42:39;;;;;;;21.85;10.18;;;;;;;;;;5089706;28;20134;-63
2022/01/07 11:45:27;;;;;;;22.33;8.75;;;;;;;;;;5090551;28;20508;-63
2022/01/07 11:47:54;;;;;;;23.45;5.18;;;;;;;;;;5082342;28;20048;-62
2022/01/07 11:50:20;;;;;;;20.17;4.63;;;;;;;;;;5084842;28;20222;-62
2022/01/07 11:52:58;;;;;;;16.88;2.63;;;;;;;;;;5082781;28;20047;-62
2022/01/07 11:55:26;;;;;;;10.93;2.55;;;;;;;;;;5082590;28;20123;-62
2022/01/07 11:57:55;;;;;;;16.88;2.55;;;;;;;;;;5087279;28;20036;-62
2022/01/07 12:00:40;;;;;;;8.48;2.33;;;;;;;;;;5085550;28;20458;-62
2022/01/07 12:03:06;;;;;;;18.13;2.30;;;;;;;;;;5085655;28;20036;-63
2022/01/07 12:05:33;;;;;;;11.07;2.03;;;;;;;;;;5085787;28;20593;-62
2022/01/07 12:07:59;;;;;;;10.90;1.88;;;;;;;;;;5087619;28;20097;-63
2022/01/07 12:10:25;;;;;;;14.40;3.05;;;;;;;;;;5081711;28;20044;-73
2022/01/07 12:12:59;;;;;;;18.90;2.58;;;;;;;;;;5085952;28;20040;-62
2022/01/07 12:15:25;;;;;;;13.88;1.90;;;;;;;;;;5089039;28;20113;-62
2022/01/07 12:17:51;;;;;;;10.57;1.90;;;;;;;;;;5085042;28;20044;-62
2022/01/07 12:20:33;;;;;;;13.93;2.58;;;;;;;;;;5090255;28;20143;-62
2022/01/07 12:22:59;;;;;;;12.88;2.58;;;;;;;;;;5085854;28;20102;-62
2022/01/07 12:25:26;;;;;;;17.52;3.22;;;;;;;;;;5086037;28;20040;-63
2022/01/07 12:27:59;;;;;;;10.23;3.72;;;;;;;;;;5083395;28;20048;-62
2022/01/07 12:30:25;;;;;;;21.63;4.88;;;;;;;;;;5094260;28;20043;-62
2022/01/07 12:32:52;;;;;;;11.15;3.22;;;;;;;;;;5086736;28;20524;-62
2022/01/07 12:35:18;;;;;;;17.42;4.90;;;;;;;;;;5082091;28;20181;-62
2022/01/07 12:37:44;;;;;;;16.90;3.88;;;;;;;;;;5077992;28;20036;-62
2022/01/07 12:40:11;;;;;;;12.50;2.30;;;;;;;;;;5079635;28;20048;-62
2022/01/07 12:42:40;;;;;;;11.30;1.63;;;;;;;;;;5080470;28;20041;-62
2022/01/07 12:45:07;;;;;;;14.02;1.90;;;;;;;;;;5100589;28;20067;-62
2022/01/07 12:47:33;;;;;;;7.15;2.05;;;;;;;;;;5087405;28;20048;-62
2022/01/07 12:50:00;;;;;;;11.88;2.38;;;;;;;;;;5081669;28;20113;-62
2022/01/07 12:52:29;;;;;;;7.85;1.55;;;;;;;;;;5083348;28;20093;-62
2022/01/07 12:54:59;;;;;;;9.98;1.70;;;;;;;;;;5084301;28;20047;-63
2022/01/07 12:57:27;;;;;;;14.57;2.33;;;;;;;;;;5083069;28;20097;-68
2022/01/07 13:00:04;;;;;;;12.02;1.83;;;;;;;;;;5085720;28;20460;-62
2022/01/07 13:02:31;;;;;;;9.32;1.70;;;;;;;;;;5085415;28;20052;-63
2022/01/07 13:05:11;;;;;;;8.60;1.90;;;;;;;;;;5083568;28;20051;-62
2022/01/07 13:07:41;;;;;;;9.70;1.95;;;;;;;;;;5082545;28;20052;-63
2022/01/07 13:10:07;;;;;;;10.02;1.95;;;;;;;;;;5087517;28;20040;-62
2022/01/07 13:12:33;;;;;;;15.15;2.80;;;;;;;;;;5089892;28;20072;-62
2022/01/07 13:14:59;;;;;;;14.85;2.97;;;;;;;;;;5074232;28;20043;-62
2022/01/07 13:17:28;;;;;;;16.98;2.03;;;;;;;;;;5092875;28;20479;-62
2022/01/07 13:19:55;;;;;;;14.38;2.03;;;;;;;;;;5096118;28;20148;-61
2022/01/07 13:22:23;;;;;;;12.70;2.42;;;;;;;;;;5096124;28;20044;-61
2022/01/07 13:24:50;;;;;;;8.98;2.10;;;;;;;;;;5098310;28;20070;-62
2022/01/07 13:27:16;;;;;;;11.00;1.85;;;;;;;;;;5103019;28;20031;-62
2022/01/07 13:29:47;;;;;;;13.60;2.00;;;;;;;;;;5101058;28;20044;-62
2022/01/07 13:32:19;;;;;;;14.95;2.15;;;;;;;;;;5103362;28;20505;-62
2022/01/07 13:34:45;;;;;;;13.50;2.47;;;;;;;;;;5106946;28;20048;-62
2022/01/07 13:37:13;;;;;;;19.73;2.00;;;;;;;;;;5094470;28;20052;-62
2022/01/07 13:39:48;;;;;;;10.98;1.92;;;;;;;;;;5093290;28;20040;-61
2022/01/07 13:42:20;;;;;;;14.18;2.95;;;;;;;;;;5096013;28;20049;-62
2022/01/07 13:44:57;;;;;;;7.57;1.83;;;;;;;;;;5096830;28;20051;-62
2022/01/07 13:47:26;;;;;;;9.70;2.10;;;;;;;;;;5092918;28;20512;-61
2022/01/07 13:50:06;;;;;;;17.48;3.42;;;;;;;;;;5093917;28;20088;-61
2022/01/07 13:52:33;;;;;;;15.95;2.60;;;;;;;;;;5094746;28;20131;-61
2022/01/07 13:55:00;;;;;;;15.13;2.55;;;;;;;;;;5090110;28;20086;-61
2022/01/07 13:57:30;;;;;;;13.45;2.50;;;;;;;;;;5088192;28;20044;-62
2022/01/07 13:59:56;;;;;;;12.55;2.70;;;;;;;;;;5092346;28;20044;-62
2022/01/07 14:02:23;;;;;;;18.95;2.70;;;;;;;;;;5092303;28;20090;-62
2022/01/07 14:04:50;;;;;;;19.45;2.13;;;;;;;;;;5098641;27;20043;-61
2022/01/07 14:07:36;;;;;;;21.42;2.78;;;;;;;;;;5105027;27;20090;-62
2022/01/07 14:10:08;;;;;;;19.30;4.15;;;;;;;;;;5102896;27;20090;-61
2022/01/07 14:12:35;;;;;;;15.77;2.15;;;;;;;;;;5090059;28;20387;-62
2022/01/07 14:15:07;;;;;;;12.27;2.10;;;;;;;;;;5090884;28;20115;-62
2022/01/07 14:17:33;;;;;;;12.50;2.25;;;;;;;;;;5088457;28;20044;-62
2022/01/07 14:20:03;;;;;;;15.60;2.42;;;;;;;;;;5088708;28;20120;-61
2022/01/07 14:22:30;;;;;;;16.15;2.95;;;;;;;;;;5086320;28;20044;-62
2022/01/07 14:24:58;;;;;;;12.10;2.03;;;;;;;;;;5085595;28;20096;-61
2022/01/07 14:27:26;;;;;;;16.70;2.25;;;;;;;;;;5089744;28;20048;-61
2022/01/07 14:29:52;;;;;;;16.90;2.75;;;;;;;;;;5084763;28;20043;-62
2022/01/07 14:32:21;;;;;;;10.57;1.95;;;;;;;;;;5089670;28;20119;-62
2022/01/07 14:34:48;;;;;;;18.45;2.85;;;;;;;;;;5092638;28;20048;-62
2022/01/07 14:37:15;;;;;;;9.98;1.65;;;;;;;;;;5089354;28;20036;-61
2022/01/07 14:39:44;;;;;;;10.75;1.90;;;;;;;;;;5088321;28;20337;-61